Hmpden Sydney, Virginia
Current Conditions -  °F | °C
As of 5:35 PM on Thursday 23 Oct 2014 (Local Time) from KFVX Reporting Station
Clear Clear  
Wind Chill: 66°   Ceiling: Unl
Heat Index: 66°   Visibility: 10mi
Dew Point: 43°   Wind: 3mph
Humidity: 43%   Direction: 360°N
Pressure: 29.89"   Gusts: NA
Location:  37.2408°N, 78.4578°W
Report Text: KFVX 232135Z AUTO 36003KT 10SM CLR 19/06 A2989 RMK AO2
Loading
Personal Weather Stations






























Interactive Weather Map New forecast layout! Learn more

10-Day Weather Forecast

Advertisements
Track Severe Weather on mobile